Time;durP1;ratioP1;P1;durP2;ratioP2;P2;SDS_P1;SDS_P2;PMS_P1;PMS_P2;Temp;Humidity;BMP_temperature;BMP_pressure;BME280_temperature;BME280_humidity;BME280_pressure;Samples;Min_cycle;Max_cycle;Signal;HPM_P1;HPM_P2
2023/05/09 00:00:12;;;;;;;27.67;25.83;;;16.00;99.90;;;;;;5069859;28;21098;-80
2023/05/09 00:02:44;;;;;;;26.93;25.10;;;15.90;1.00;;;;;;5077186;28;20492;-80
2023/05/09 00:05:13;;;;;;;28.23;26.33;;;16.00;1.00;;;;;;5075701;28;21220;-80
2023/05/09 00:07:42;;;;;;;28.10;26.27;;;15.90;99.90;;;;;;5078181;28;20513;-79
2023/05/09 00:10:10;;;;;;;28.17;26.27;;;15.80;1.00;;;;;;5078917;28;20477;-80
2023/05/09 00:12:38;;;;;;;28.23;26.43;;;15.80;1.00;;;;;;5080575;28;20553;-81
2023/05/09 00:15:08;;;;;;;28.97;26.90;;;15.80;1.00;;;;;;5080473;28;20455;-80
2023/05/09 00:17:38;;;;;;;29.40;27.40;;;15.70;1.00;;;;;;5077203;28;20846;-79
2023/05/09 00:20:11;;;;;;;28.23;26.33;;;15.70;1.00;;;;;;5078697;28;21075;-80
2023/05/09 00:22:40;;;;;;;29.30;27.00;;;15.80;1.00;;;;;;5076840;28;20494;-81
2023/05/09 00:25:10;;;;;;;28.50;26.50;;;15.80;1.00;;;;;;5078097;28;20493;-78
2023/05/09 00:27:38;;;;;;;29.20;27.23;;;15.80;1.00;;;;;;5077376;28;20457;-80
2023/05/09 00:30:08;;;;;;;30.67;28.47;;;15.80;1.00;;;;;;5072604;28;20571;-80
2023/05/09 00:32:39;;;;;;;31.23;28.93;;;15.80;1.00;;;;;;5076326;28;20861;-80
2023/05/09 00:35:08;;;;;;;31.83;29.47;;;15.80;1.00;;;;;;5072068;28;20844;-81
2023/05/09 00:37:36;;;;;;;31.30;28.90;;;15.80;1.00;;;;;;5071498;28;20475;-78
2023/05/09 00:40:08;;;;;;;30.30;28.20;;;15.80;1.00;;;;;;5078269;28;20442;-81
2023/05/09 00:42:36;;;;;;;31.40;29.20;;;15.90;1.00;;;;;;5075752;28;20598;-80
2023/05/09 00:45:05;;;;;;;32.13;29.57;;;15.90;1.00;;;;;;5074915;28;20455;-79
2023/05/09 00:47:34;;;;;;;31.03;28.73;;;15.80;1.00;;;;;;5073318;28;20474;-80
2023/05/09 00:50:05;;;;;;;30.30;28.17;;;15.90;1.00;;;;;;5076957;28;20459;-80
2023/05/09 00:52:34;;;;;;;30.27;28.17;;;15.90;1.00;;;;;;5070768;28;20459;-80
2023/05/09 00:55:03;;;;;;;29.73;27.53;;;15.90;1.00;;;;;;5075124;28;20895;-80
2023/05/09 00:57:32;;;;;;;28.87;26.67;;;16.00;99.90;;;;;;5076972;28;20447;-81
2023/05/09 01:00:00;;;;;;;31.03;28.63;;;16.00;99.90;;;;;;5077805;28;20456;-81
2023/05/09 01:02:29;;;;;;;30.40;28.40;;;16.10;99.90;;;;;;5075085;28;21212;-81
2023/05/09 01:04:57;;;;;;;29.33;27.23;;;16.00;99.90;;;;;;5073538;28;20453;-80
2023/05/09 01:07:34;;;;;;;30.40;28.20;;;16.00;1.00;;;;;;5070430;28;20456;-80
2023/05/09 01:10:08;;;;;;;31.40;29.10;;;16.00;1.00;;;;;;5076301;28;20485;-79
2023/05/09 01:12:42;;;;;;;28.20;26.40;;;15.90;1.00;;;;;;5060312;28;20838;-80
2023/05/09 01:15:18;;;;;;;29.20;27.20;;;15.90;1.00;;;;;;5078761;28;20442;-81
2023/05/09 01:17:53;;;;;;;32.00;29.70;;;15.80;1.00;;;;;;5080996;28;20464;-81
2023/05/09 01:20:28;;;;;;;31.60;29.13;;;15.80;1.00;;;;;;5080536;28;20981;-80
2023/05/09 01:23:12;;;;;;;30.43;28.30;;;15.80;1.00;;;;;;5072654;28;20466;-79
2023/05/09 01:25:54;;;;;;;32.03;29.60;;;15.80;1.00;;;;;;5079924;28;20538;-80
2023/05/09 01:28:36;;;;;;;31.30;28.97;;;15.90;1.00;;;;;;5079827;28;21187;-79
2023/05/09 01:31:07;;;;;;;30.70;28.50;;;15.90;1.00;;;;;;5075876;28;20478;-80
2023/05/09 01:33:40;;;;;;;29.50;27.33;;;15.90;1.00;;;;;;5060787;28;20488;-80
2023/05/09 01:36:12;;;;;;;30.00;27.77;;;15.90;1.00;;;;;;5078902;28;20452;-80
2023/05/09 01:38:44;;;;;;;28.97;26.97;;;16.00;1.00;;;;;;5074967;28;20471;-80
2023/05/09 01:41:15;;;;;;;31.57;29.20;;;15.90;1.00;;;;;;5077261;28;20533;-79
2023/05/09 01:43:46;;;;;;;31.50;29.20;;;16.00;1.00;;;;;;5078374;28;20487;-81
2023/05/09 01:46:18;;;;;;;30.30;28.00;;;15.90;1.00;;;;;;5082201;28;20439;-79
2023/05/09 01:48:46;;;;;;;30.40;28.10;;;15.90;1.00;;;;;;5079758;28;20451;-80
2023/05/09 01:51:16;;;;;;;29.60;27.50;;;15.80;1.00;;;;;;5081056;28;20479;-80
2023/05/09 01:53:48;;;;;;;29.57;27.17;;;15.70;1.00;;;;;;5081541;28;20484;-80
2023/05/09 01:56:17;;;;;;;30.83;28.53;;;15.70;1.00;;;;;;5081442;28;20458;-80
2023/05/09 01:58:48;;;;;;;28.80;26.80;;;15.70;1.00;;;;;;5079412;28;20534;-80
2023/05/09 02:01:19;;;;;;;31.10;28.63;;;15.80;1.00;;;;;;5077038;28;20451;-80
2023/05/09 02:03:51;;;;;;;30.03;28.03;;;15.70;1.00;;;;;;5076334;28;20500;-80
2023/05/09 02:06:22;;;;;;;29.47;27.47;;;15.70;1.00;;;;;;5082977;28;20452;-80
2023/05/09 02:08:50;;;;;;;28.27;26.27;;;15.60;1.00;;;;;;5079020;28;20447;-81
2023/05/09 02:11:19;;;;;;;30.13;27.83;;;15.60;1.00;;;;;;5065458;28;20474;-80
2023/05/09 02:13:47;;;;;;;28.93;26.73;;;15.50;1.00;;;;;;5079724;28;20474;-80
2023/05/09 02:16:16;;;;;;;27.90;25.97;;;15.50;1.00;;;;;;5060844;28;21095;-80
2023/05/09 02:18:45;;;;;;;29.53;27.33;;;15.50;1.00;;;;;;5081212;28;20456;-81
2023/05/09 02:21:14;;;;;;;28.83;26.33;;;15.50;1.00;;;;;;5079146;28;20498;-80
2023/05/09 02:23:42;;;;;;;28.57;26.63;;;15.50;1.00;;;;;;5077311;28;20519;-80
2023/05/09 02:26:11;;;;;;;30.10;27.97;;;15.50;1.00;;;;;;5077621;28;21119;-81
2023/05/09 02:28:39;;;;;;;28.43;26.30;;;15.50;1.00;;;;;;5078882;28;20983;-80
2023/05/09 02:31:09;;;;;;;28.80;26.80;;;15.50;1.00;;;;;;5078154;28;20491;-81
2023/05/09 02:33:38;;;;;;;29.27;27.17;;;15.40;1.00;;;;;;5058558;28;20542;-81
2023/05/09 02:36:09;;;;;;;27.93;25.83;;;15.50;1.00;;;;;;5058872;28;21011;-81
2023/05/09 02:38:38;;;;;;;28.00;26.20;;;15.50;1.00;;;;;;5078044;28;20459;-81
2023/05/09 02:41:06;;;;;;;28.37;26.37;;;15.50;1.00;;;;;;5079687;28;20989;-80
2023/05/09 02:43:35;;;;;;;27.27;25.37;;;15.40;1.00;;;;;;5071981;28;20541;-81
2023/05/09 02:46:03;;;;;;;27.60;25.80;;;15.50;1.00;;;;;;5080674;28;20498;-80
2023/05/09 02:48:31;;;;;;;28.40;26.37;;;15.40;1.00;;;;;;5077004;28;20454;-80
2023/05/09 02:50:59;;;;;;;29.90;27.70;;;15.40;1.00;;;;;;5078242;28;20485;-80
2023/05/09 02:53:29;;;;;;;29.33;27.13;;;15.30;1.00;;;;;;5081686;28;21093;-81
2023/05/09 02:55:57;;;;;;;33.37;30.67;;;15.30;1.00;;;;;;5077226;28;20458;-81
2023/05/09 02:58:25;;;;;;;31.97;29.80;;;15.40;1.00;;;;;;5074210;28;20449;-79
2023/05/09 03:00:53;;;;;;;31.40;29.10;;;15.30;1.00;;;;;;5074552;28;20456;-81
2023/05/09 03:03:22;;;;;;;31.93;29.43;;;15.30;1.00;;;;;;5075080;28;20466;-81
2023/05/09 03:05:50;;;;;;;31.47;28.97;;;15.40;1.00;;;;;;5076053;28;20492;-79
2023/05/09 03:08:18;;;;;;;30.60;28.20;;;15.40;1.00;;;;;;5080209;28;21033;-80
2023/05/09 03:10:48;;;;;;;31.67;29.37;;;15.40;1.00;;;;;;5080041;28;20494;-81
2023/05/09 03:13:16;;;;;;;30.57;28.27;;;15.50;1.00;;;;;;5079376;28;21034;-81
2023/05/09 03:15:44;;;;;;;30.93;28.43;;;15.50;1.00;;;;;;5079955;28;20864;-80
2023/05/09 03:18:12;;;;;;;29.13;26.93;;;15.50;1.00;;;;;;5080224;28;20446;-81
2023/05/09 03:20:40;;;;;;;31.57;29.17;;;15.40;1.00;;;;;;5078152;28;20462;-81
2023/05/09 03:23:09;;;;;;;29.90;27.80;;;15.50;1.00;;;;;;5082233;28;20466;-81
2023/05/09 03:25:37;;;;;;;31.43;29.23;;;15.50;1.00;;;;;;5078735;28;20541;-80
2023/05/09 03:28:07;;;;;;;30.83;28.73;;;15.50;1.00;;;;;;5079686;28;20485;-81
2023/05/09 03:30:35;;;;;;;29.60;27.50;;;15.60;1.00;;;;;;5080034;28;20877;-81
2023/05/09 03:33:05;;;;;;;29.10;26.83;;;15.60;1.00;;;;;;5077586;28;20506;-79
2023/05/09 03:35:33;;;;;;;29.80;27.57;;;15.50;1.00;;;;;;5077388;28;20509;-80
2023/05/09 03:38:01;;;;;;;29.07;26.80;;;15.50;1.00;;;;;;5078935;28;20453;-80
2023/05/09 03:40:32;;;;;;;28.80;26.77;;;15.40;1.00;;;;;;5082547;28;20483;-80
2023/05/09 03:43:00;;;;;;;27.93;26.13;;;15.30;1.00;;;;;;5078176;28;20509;-80
2023/05/09 03:45:29;;;;;;;29.33;27.23;;;15.30;1.00;;;;;;5079240;28;20477;-81
2023/05/09 03:47:57;;;;;;;28.03;26.23;;;15.40;1.00;;;;;;5067727;28;21058;-81
2023/05/09 03:50:26;;;;;;;27.43;25.67;;;15.30;1.00;;;;;;5073968;28;20982;-80
2023/05/09 03:52:55;;;;;;;27.50;25.60;;;15.20;1.00;;;;;;5078625;28;20492;-80
2023/05/09 03:55:24;;;;;;;27.53;25.80;;;15.20;1.00;;;;;;5081913;28;20465;-82
2023/05/09 03:57:52;;;;;;;29.87;27.57;;;15.20;1.00;;;;;;5078437;28;20459;-80
2023/05/09 04:00:21;;;;;;;29.43;27.13;;;15.20;1.00;;;;;;5076758;28;20523;-80
2023/05/09 04:02:51;;;;;;;28.53;26.63;;;15.20;1.00;;;;;;5076845;28;20478;-81
2023/05/09 04:05:19;;;;;;;30.00;27.93;;;15.20;1.00;;;;;;5079763;28;20455;-81
2023/05/09 04:07:47;;;;;;;29.00;27.10;;;15.20;1.00;;;;;;5072523;28;20831;-79
2023/05/09 04:10:15;;;;;;;30.80;28.50;;;15.10;1.00;;;;;;5076777;28;20941;-80
2023/05/09 04:12:44;;;;;;;29.30;27.20;;;15.20;1.00;;;;;;5074275;28;20912;-77
2023/05/09 04:15:12;;;;;;;28.50;26.60;;;15.30;1.00;;;;;;5074676;28;20990;-81
2023/05/09 04:17:40;;;;;;;27.90;25.90;;;15.30;1.00;;;;;;5075035;28;20565;-80
2023/05/09 04:20:12;;;;;;;28.33;26.53;;;15.30;1.00;;;;;;5072062;28;20457;-80
2023/05/09 04:22:40;;;;;;;27.10;25.50;;;15.30;1.00;;;;;;5080168;28;20486;-79
2023/05/09 04:25:11;;;;;;;27.50;25.60;;;15.30;1.00;;;;;;5078078;28;20491;-80
2023/05/09 04:27:39;;;;;;;28.70;26.70;;;15.30;1.00;;;;;;5074565;28;20538;-80
2023/05/09 04:30:09;;;;;;;28.80;26.80;;;15.20;1.00;;;;;;5055330;28;20565;-80
2023/05/09 04:32:37;;;;;;;26.77;25.00;;;15.20;1.00;;;;;;5075882;28;20482;-81
2023/05/09 04:35:07;;;;;;;28.20;26.30;;;15.30;1.00;;;;;;5077421;28;20440;-81
2023/05/09 04:37:36;;;;;;;27.67;25.97;;;15.40;1.00;;;;;;5071445;28;20827;-80
2023/05/09 04:40:06;;;;;;;27.33;25.63;;;15.30;1.00;;;;;;5074588;28;20544;-80
2023/05/09 04:42:36;;;;;;;26.97;25.07;;;15.30;1.00;;;;;;5075603;28;20513;-80
2023/05/09 04:45:05;;;;;;;26.33;24.73;;;15.30;1.00;;;;;;5077393;28;20450;-81
2023/05/09 04:47:33;;;;;;;26.17;24.67;;;15.30;1.00;;;;;;5078867;28;20744;-80
2023/05/09 04:50:01;;;;;;;26.53;24.70;;;15.20;1.00;;;;;;5079375;28;20458;-80
2023/05/09 04:52:29;;;;;;;25.47;23.90;;;15.30;1.00;;;;;;5079344;28;20478;-80
2023/05/09 04:54:59;;;;;;;25.33;23.90;;;15.30;1.00;;;;;;5071402;28;20966;-79
2023/05/09 04:57:27;;;;;;;23.33;21.93;;;15.40;1.00;;;;;;5077783;28;20455;-79
2023/05/09 04:59:56;;;;;;;22.13;20.83;;;15.40;1.00;;;;;;5078755;28;20465;-78
2023/05/09 05:02:24;;;;;;;22.53;21.30;;;15.30;1.00;;;;;;5074960;28;20472;-79
2023/05/09 05:04:53;;;;;;;23.27;22.07;;;15.40;1.00;;;;;;5073112;28;20977;-79
2023/05/09 05:07:37;;;;;;;22.47;21.00;;;15.40;1.00;;;;;;5081142;28;20492;-79
2023/05/09 05:10:08;;;;;;;22.97;21.70;;;15.40;1.00;;;;;;5079776;28;20511;-81
2023/05/09 05:12:36;;;;;;;22.83;21.53;;;15.30;1.00;;;;;;5076028;28;20488;-79
2023/05/09 05:15:05;;;;;;;21.63;20.53;;;15.30;1.00;;;;;;5072809;28;20557;-79
2023/05/09 05:17:33;;;;;;;23.00;21.60;;;15.30;1.00;;;;;;5080415;28;20462;-79
2023/05/09 05:20:05;;;;;;;22.27;21.07;;;15.40;1.00;;;;;;5079607;28;20476;-78
2023/05/09 05:22:33;;;;;;;24.10;22.60;;;15.40;1.00;;;;;;5079817;28;20564;-79
2023/05/09 05:25:02;;;;;;;22.43;21.23;;;15.40;1.00;;;;;;5079594;28;20507;-78
2023/05/09 05:27:31;;;;;;;22.00;20.90;;;15.50;1.00;;;;;;5078398;28;20541;-79
2023/05/09 05:30:00;;;;;;;22.60;21.07;;;15.50;1.00;;;;;;5075678;28;20464;-78
2023/05/09 05:32:28;;;;;;;23.43;22.03;;;15.40;1.00;;;;;;5077020;28;20492;-79
2023/05/09 05:34:56;;;;;;;21.83;20.63;;;15.50;1.00;;;;;;5077842;28;20453;-78
2023/05/09 05:37:24;;;;;;;23.40;22.10;;;15.40;1.00;;;;;;5069749;28;20470;-78
2023/05/09 05:39:53;;;;;;;23.17;21.87;;;15.50;1.00;;;;;;5071699;28;20455;-79
2023/05/09 05:42:21;;;;;;;22.93;21.60;;;15.50;1.00;;;;;;5071743;28;20487;-77
2023/05/09 05:44:50;;;;;;;23.03;21.83;;;15.60;1.00;;;;;;5053169;28;20486;-79
2023/05/09 05:47:19;;;;;;;23.23;21.93;;;15.70;1.00;;;;;;5073896;28;20571;-79
2023/05/09 05:49:47;;;;;;;22.93;21.73;;;15.70;1.00;;;;;;5074451;28;21021;-78
2023/05/09 05:52:15;;;;;;;22.60;21.40;;;15.70;1.00;;;;;;5075914;28;20480;-77
2023/05/09 05:54:43;;;;;;;23.33;22.03;;;15.90;1.00;;;;;;5079586;28;20454;-78
2023/05/09 05:57:11;;;;;;;23.47;22.17;;;16.00;1.00;;;;;;5072082;28;21048;-80
2023/05/09 05:59:40;;;;;;;23.70;22.30;;;16.00;1.00;;;;;;5073626;28;20453;-80
2023/05/09 06:02:09;;;;;;;23.67;22.27;;;16.10;1.00;;;;;;5071207;28;20483;-80
2023/05/09 06:04:37;;;;;;;25.47;24.07;;;16.10;1.00;;;;;;5076545;28;20457;-79
2023/05/09 06:07:06;;;;;;;22.50;21.40;;;16.10;1.00;;;;;;5079270;28;20926;-77
2023/05/09 06:09:34;;;;;;;24.63;23.17;;;16.10;1.00;;;;;;5077708;28;20452;-78
2023/05/09 06:12:02;;;;;;;25.13;23.53;;;16.20;1.00;;;;;;5074940;28;20539;-79
2023/05/09 06:14:30;;;;;;;24.93;23.47;;;16.20;1.00;;;;;;5071223;28;20478;-79
2023/05/09 06:16:58;;;;;;;24.63;23.33;;;16.30;1.00;;;;;;5074147;28;20462;-77
2023/05/09 06:19:28;;;;;;;24.67;23.27;;;16.30;1.00;;;;;;5076353;28;20489;-78
2023/05/09 06:21:56;;;;;;;25.37;23.60;;;16.30;1.00;;;;;;5075116;28;20476;-78
2023/05/09 06:24:24;;;;;;;23.70;22.40;;;16.30;1.00;;;;;;5074082;28;20512;-77
2023/05/09 06:27:04;;;;;;;27.73;26.00;;;16.20;1.00;;;;;;5079901;28;20487;-78
2023/05/09 06:29:32;;;;;;;24.53;23.13;;;16.20;1.00;;;;;;5076184;28;20452;-75
2023/05/09 06:32:00;;;;;;;24.30;23.00;;;16.30;1.00;;;;;;5075209;28;20466;-77
2023/05/09 06:34:29;;;;;;;25.07;23.57;;;16.30;1.00;;;;;;5076730;28;21069;-79
2023/05/09 06:36:58;;;;;;;24.33;23.00;;;16.30;1.00;;;;;;5075727;28;20498;-79
2023/05/09 06:39:26;;;;;;;23.03;21.90;;;16.30;1.00;;;;;;5076056;28;20547;-79
2023/05/09 06:41:54;;;;;;;23.50;22.37;;;16.20;1.00;;;;;;5073014;28;20479;-78
2023/05/09 06:44:22;;;;;;;24.23;22.93;;;16.20;1.00;;;;;;5068533;28;20979;-79
2023/05/09 06:46:51;;;;;;;24.17;22.70;;;16.30;1.00;;;;;;5054981;28;21000;-78
2023/05/09 06:49:19;;;;;;;25.67;24.13;;;16.40;1.00;;;;;;5073075;28;20453;-78
2023/05/09 06:51:48;;;;;;;27.07;25.37;;;16.40;1.00;;;;;;5068101;28;20552;-78
2023/05/09 06:54:17;;;;;;;28.20;26.40;;;16.40;1.00;;;;;;5070417;28;20466;-78
2023/05/09 06:56:45;;;;;;;26.60;24.90;;;16.50;1.00;;;;;;5072520;28;20478;-79
2023/05/09 06:59:15;;;;;;;24.87;23.47;;;16.60;99.90;;;;;;5075288;28;20469;-80
2023/05/09 07:01:43;;;;;;;26.00;24.40;;;16.50;99.90;;;;;;5073966;28;20924;-79
2023/05/09 07:04:11;;;;;;;24.80;23.40;;;16.60;1.00;;;;;;5071506;28;20457;-79
2023/05/09 07:06:39;;;;;;;25.30;23.80;;;16.60;1.00;;;;;;5072669;28;20446;-79
2023/05/09 07:09:09;;;;;;;25.73;24.30;;;16.70;1.00;;;;;;5071714;28;20457;-78
2023/05/09 07:11:38;;;;;;;26.23;24.53;;;16.80;1.00;;;;;;5070739;28;20975;-79
2023/05/09 07:14:06;;;;;;;24.60;23.20;;;16.60;99.90;;;;;;5072771;28;20487;-79
2023/05/09 07:16:34;;;;;;;24.13;22.73;;;16.60;99.90;;;;;;5059237;28;20474;-78
2023/05/09 07:19:04;;;;;;;24.13;22.83;;;16.60;1.00;;;;;;5077969;28;20806;-79
2023/05/09 07:21:33;;;;;;;24.33;22.97;;;16.70;99.90;;;;;;5077716;28;20878;-77
2023/05/09 07:24:01;;;;;;;23.77;22.57;;;16.80;1.00;;;;;;5076854;28;20453;-78
2023/05/09 07:26:31;;;;;;;24.47;23.17;;;16.90;99.90;;;;;;5074971;28;20484;-78
2023/05/09 07:28:59;;;;;;;24.23;22.90;;;16.90;99.90;;;;;;5077388;28;20798;-79
2023/05/09 07:31:27;;;;;;;24.73;23.33;;;17.00;99.90;;;;;;5078057;28;20459;-80
2023/05/09 07:33:56;;;;;;;24.27;22.87;;;17.00;1.00;;;;;;5077107;28;20485;-78
2023/05/09 07:36:24;;;;;;;24.10;22.83;;;17.00;26.10;;;;;;5078033;28;21066;-76
2023/05/09 07:38:53;;;;;;;23.03;21.93;;;17.10;1.00;;;;;;5076676;28;20514;-79
2023/05/09 07:41:21;;;;;;;23.63;22.33;;;17.20;1.00;;;;;;5076826;28;20447;-79
2023/05/09 07:43:51;;;;;;;24.23;22.93;;;17.10;1.00;;;;;;5075700;28;20483;-80
2023/05/09 07:46:20;;;;;;;24.10;22.67;;;17.10;1.00;;;;;;5078448;28;20485;-79
2023/05/09 07:48:48;;;;;;;23.47;22.27;;;17.00;1.00;;;;;;5081221;28;20450;-79
2023/05/09 07:51:16;;;;;;;25.57;23.97;;;17.10;54.50;;;;;;5074699;28;20454;-78
2023/05/09 07:53:45;;;;;;;24.30;22.90;;;17.20;1.00;;;;;;5077640;28;20476;-78
2023/05/09 07:56:13;;;;;;;26.00;24.57;;;17.20;1.00;;;;;;5074800;28;20445;-79
2023/05/09 07:58:41;;;;;;;25.43;23.93;;;17.20;99.90;;;;;;5077103;28;20742;-78
2023/05/09 08:01:11;;;;;;;26.00;24.40;;;17.20;99.90;;;;;;5072649;28;20461;-79
2023/05/09 08:03:39;;;;;;;25.83;24.33;;;17.10;99.90;;;;;;5073698;28;20467;-79
2023/05/09 08:06:07;;;;;;;25.70;23.90;;;17.10;5.30;;;;;;5074863;28;20509;-79
2023/05/09 08:08:35;;;;;;;25.73;24.13;;;17.20;1.00;;;;;;5080152;28;21814;-79
2023/05/09 08:11:06;;;;;;;25.90;24.20;;;17.30;1.00;;;;;;5074169;28;20442;-78
2023/05/09 08:13:34;;;;;;;25.90;24.27;;;17.40;1.00;;;;;;5077522;28;20476;-78
2023/05/09 08:16:02;;;;;;;26.03;24.43;;;17.50;1.00;;;;;;5076788;28;20481;-80
2023/05/09 08:18:32;;;;;;;27.17;25.37;;;17.60;99.90;;;;;;5058533;28;20454;-79
2023/05/09 08:21:00;;;;;;;26.73;25.03;;;17.50;99.90;;;;;;5078181;28;20453;-78
2023/05/09 08:23:29;;;;;;;26.67;24.97;;;17.30;1.00;;;;;;5078263;28;20469;-79
2023/05/09 08:25:57;;;;;;;25.17;23.67;;;17.30;1.00;;;;;;5064272;28;20541;-78
2023/05/09 08:28:27;;;;;;;26.97;25.27;;;17.40;96.40;;;;;;5078563;28;20595;-78
2023/05/09 08:30:56;;;;;;;25.43;23.83;;;17.40;41.80;;;;;;5076480;28;20579;-78
2023/05/09 08:33:25;;;;;;;24.73;23.23;;;17.40;6.00;;;;;;5071210;28;20868;-79
2023/05/09 08:35:55;;;;;;;24.50;23.20;;;17.40;13.30;;;;;;5078073;28;20469;-80
2023/05/09 08:38:24;;;;;;;25.30;23.90;;;17.40;1.00;;;;;;5076353;28;20453;-77
2023/05/09 08:40:53;;;;;;;27.60;26.10;;;17.40;1.00;;;;;;5076958;28;20453;-79
2023/05/09 08:43:23;;;;;;;26.20;24.70;;;17.40;1.00;;;;;;5075058;28;20517;-80
2023/05/09 08:45:56;;;;;;;25.63;24.33;;;17.50;48.30;;;;;;5077215;28;20473;-78
2023/05/09 08:48:26;;;;;;;25.47;24.27;;;17.50;1.00;;;;;;5076767;28;21121;-78
2023/05/09 08:50:57;;;;;;;25.80;24.60;;;17.60;1.00;;;;;;5078704;28;20568;-78
2023/05/09 08:53:26;;;;;;;26.80;25.27;;;17.70;1.00;;;;;;5075669;28;20477;-79
2023/05/09 08:55:54;;;;;;;24.87;23.67;;;17.80;99.90;;;;;;5075757;28;21002;-79
2023/05/09 08:58:23;;;;;;;24.00;22.90;;;17.80;99.90;;;;;;5078048;28;21110;-77
2023/05/09 09:00:52;;;;;;;23.97;22.87;;;17.80;1.00;;;;;;5073537;28;20465;-79
2023/05/09 09:03:20;;;;;;;22.97;22.07;;;17.90;1.00;;;;;;5076418;28;20472;-79
2023/05/09 09:05:49;;;;;;;24.43;23.27;;;18.00;99.90;;;;;;5077939;28;20458;-79
2023/05/09 09:08:19;;;;;;;23.67;22.57;;;18.10;1.00;;;;;;5078682;28;21126;-78
2023/05/09 09:10:48;;;;;;;23.63;22.63;;;18.10;1.00;;;;;;5076915;28;20454;-79
2023/05/09 09:13:17;;;;;;;23.30;22.40;;;18.20;99.90;;;;;;5074929;28;20489;-79
2023/05/09 09:15:48;;;;;;;25.10;23.90;;;18.20;97.70;;;;;;5076746;28;20575;-79
2023/05/09 09:18:27;;;;;;;23.17;22.17;;;18.20;99.90;;;;;;5078475;28;20524;-80
2023/05/09 09:20:59;;;;;;;24.60;23.57;;;18.30;99.90;;;;;;5077088;28;20519;-79
2023/05/09 09:23:30;;;;;;;24.40;23.20;;;18.30;99.90;;;;;;5077757;28;20468;-79
2023/05/09 09:25:59;;;;;;;23.77;22.77;;;18.10;99.90;;;;;;5078842;28;20449;-79
2023/05/09 09:28:28;;;;;;;24.30;23.20;;;18.10;1.00;;;;;;5077487;28;20930;-79
2023/05/09 09:30:57;;;;;;;23.13;22.13;;;18.10;99.90;;;;;;5076939;28;20453;-78
2023/05/09 09:33:26;;;;;;;24.33;23.13;;;17.90;1.00;;;;;;5077923;28;20476;-79
2023/05/09 09:35:56;;;;;;;23.03;22.13;;;17.90;31.40;;;;;;5082522;28;20513;-79
2023/05/09 09:38:25;;;;;;;23.43;22.43;;;18.00;99.90;;;;;;5082206;28;20818;-79
2023/05/09 09:40:59;;;;;;;24.13;23.03;;;18.00;1.00;;;;;;5080996;28;20459;-79
2023/05/09 09:43:28;;;;;;;23.20;22.20;;;18.10;1.00;;;;;;5079906;28;20485;-78
2023/05/09 09:45:57;;;;;;;23.70;22.60;;;18.10;99.90;;;;;;5079837;28;20484;-78
2023/05/09 09:48:26;;;;;;;23.40;22.20;;;18.10;50.70;;;;;;5079574;28;20532;-79
2023/05/09 09:50:55;;;;;;;24.10;22.97;;;18.10;1.00;;;;;;5080092;28;20445;-77
2023/05/09 09:53:29;;;;;;;22.97;22.00;;;18.00;99.90;;;;;;5078122;28;20469;-79
2023/05/09 09:55:58;;;;;;;23.40;22.40;;;18.10;1.00;;;;;;5081238;28;21048;-78
2023/05/09 09:58:27;;;;;;;22.90;21.90;;;18.10;1.00;;;;;;5078624;28;20442;-78
2023/05/09 10:01:06;;;;;;;25.87;24.47;;;18.20;9.10;;;;;;5079268;28;20709;-78
2023/05/09 10:03:38;;;;;;;25.13;23.40;;;18.30;1.00;;;;;;5077962;28;20465;-78
2023/05/09 10:06:10;;;;;;;25.03;23.83;;;18.40;1.00;;;;;;5074385;28;20465;-79
2023/05/09 10:08:39;;;;;;;25.40;24.20;;;18.50;1.00;;;;;;5079661;28;20950;-79
2023/05/09 10:11:09;;;;;;;25.43;24.17;;;18.60;99.90;;;;;;5078271;28;20500;-79
2023/05/09 10:13:40;;;;;;;24.80;23.60;;;18.60;99.90;;;;;;5076310;28;20529;-79
2023/05/09 10:16:09;;;;;;;25.57;24.30;;;18.70;1.00;;;;;;5076566;28;20897;-79
2023/05/09 10:18:39;;;;;;;24.97;23.77;;;18.80;1.00;;;;;;5081492;28;20458;-79
2023/05/09 10:21:10;;;;;;;24.77;23.57;;;18.90;99.90;;;;;;5078346;28;20454;-79
2023/05/09 10:23:44;;;;;;;25.80;24.40;;;18.70;99.90;;;;;;5080359;28;20476;-78
2023/05/09 10:26:17;;;;;;;24.10;23.00;;;18.80;99.90;;;;;;5078475;28;20488;-78
2023/05/09 10:28:47;;;;;;;24.73;23.53;;;19.00;99.90;;;;;;5079466;28;20530;-78
2023/05/09 10:31:22;;;;;;;23.43;22.43;;;19.10;99.90;;;;;;5081912;28;20513;-79
2023/05/09 10:33:51;;;;;;;23.40;22.40;;;19.20;99.90;;;;;;5080716;28;20469;-80
2023/05/09 10:36:21;;;;;;;23.93;22.77;;;19.20;15.00;;;;;;5078685;28;20483;-80
2023/05/09 10:38:49;;;;;;;22.80;21.90;;;19.30;31.80;;;;;;5075664;28;20486;-78
2023/05/09 10:41:20;;;;;;;23.10;22.00;;;19.40;99.90;;;;;;5080389;28;20453;-79
2023/05/09 10:43:49;;;;;;;22.57;21.57;;;19.30;1.00;;;;;;5079037;28;20481;-80
2023/05/09 10:46:17;;;;;;;21.50;20.60;;;19.40;1.00;;;;;;5077890;28;20608;-78
2023/05/09 10:48:47;;;;;;;22.67;21.57;;;19.50;1.00;;;;;;5078250;28;20454;-79
2023/05/09 10:51:17;;;;;;;22.03;21.23;;;19.50;1.00;;;;;;5081066;28;20473;-80
2023/05/09 10:53:47;;;;;;;21.13;20.33;;;19.60;1.00;;;;;;5065902;28;20471;-79
2023/05/09 10:56:28;;;;;;;20.87;20.07;;;19.50;1.00;;;;;;5079616;28;20515;-79
2023/05/09 10:58:57;;;;;;;21.20;20.43;;;19.50;1.00;;;;;;5076511;28;20455;-79
2023/05/09 11:01:33;;;;;;;20.77;19.97;;;19.70;1.00;;;;;;5078445;28;20443;-78
2023/05/09 11:04:09;;;;;;;20.90;20.10;;;19.70;1.00;;;;;;5077105;28;20534;-79
2023/05/09 11:06:49;;;;;;;21.27;20.50;;;19.70;1.00;;;;;;5080606;28;20458;-79
2023/05/09 11:09:27;;;;;;;21.33;20.53;;;19.70;1.00;;;;;;5077897;28;20454;-80
2023/05/09 11:11:58;;;;;;;21.13;20.40;;;19.80;1.00;;;;;;5078733;28;20465;-80
2023/05/09 11:14:31;;;;;;;20.90;20.10;;;19.90;1.00;;;;;;5078161;28;20979;-78
2023/05/09 11:17:00;;;;;;;21.30;20.53;;;19.80;1.00;;;;;;5078379;28;20496;-79
2023/05/09 11:19:57;;;;;;;20.47;19.77;;;19.90;1.00;;;;;;5078010;28;20753;-79
2023/05/09 11:22:26;;;;;;;21.50;20.57;;;19.90;1.00;;;;;;5077042;28;20557;-78
2023/05/09 11:25:04;;;;;;;20.53;19.83;;;19.90;1.00;;;;;;5079645;28;20530;-79
2023/05/09 11:27:41;;;;;;;20.03;19.33;;;19.90;1.00;;;;;;5080108;28;20541;-79
2023/05/09 11:30:11;;;;;;;20.07;19.40;;;19.70;1.00;;;;;;5077095;28;20544;-79
2023/05/09 11:32:44;;;;;;;20.60;19.90;;;19.70;1.00;;;;;;5076845;28;20480;-79
2023/05/09 11:35:15;;;;;;;21.30;20.53;;;19.80;1.00;;;;;;5078622;28;21204;-80
2023/05/09 11:37:48;;;;;;;20.07;19.37;;;19.90;1.00;;;;;;5078899;28;20481;-78
2023/05/09 11:40:18;;;;;;;19.90;19.30;;;19.80;1.00;;;;;;5077186;28;20452;-80
2023/05/09 11:42:49;;;;;;;20.20;19.50;;;19.80;1.00;;;;;;5074249;28;20501;-79
2023/05/09 11:45:18;;;;;;;19.90;19.20;;;19.80;1.00;;;;;;5079515;28;20962;-79
2023/05/09 11:47:46;;;;;;;19.57;18.97;;;19.90;1.00;;;;;;5078776;28;20440;-79
2023/05/09 11:50:16;;;;;;;20.30;19.60;;;19.90;1.00;;;;;;5076244;28;20458;-79
2023/05/09 11:52:47;;;;;;;20.50;19.80;;;19.80;1.00;;;;;;5076956;28;20474;-80
2023/05/09 11:55:17;;;;;;;20.23;19.33;;;19.70;1.00;;;;;;5075726;28;20458;-79
2023/05/09 11:57:49;;;;;;;20.33;19.53;;;19.70;1.00;;;;;;5079058;28;20866;-79
2023/05/09 12:00:19;;;;;;;20.47;19.50;;;19.60;1.00;;;;;;5075451;28;20463;-80
2023/05/09 12:02:49;;;;;;;21.03;20.20;;;19.80;1.00;;;;;;5085142;28;20504;-81
2023/05/09 12:05:19;;;;;;;20.70;20.00;;;19.80;1.00;;;;;;5086770;28;20872;-79
2023/05/09 12:07:48;;;;;;;21.07;20.10;;;19.80;1.00;;;;;;5088755;28;20452;-80
2023/05/09 12:10:19;;;;;;;20.90;20.13;;;19.80;1.00;;;;;;5081011;28;20435;-80
2023/05/09 12:12:50;;;;;;;20.57;19.77;;;19.80;1.00;;;;;;5076340;28;20484;-81
2023/05/09 12:15:20;;;;;;;21.53;20.33;;;19.80;1.00;;;;;;5078376;28;20967;-80
2023/05/09 12:18:01;;;;;;;20.90;20.20;;;19.90;1.00;;;;;;5078497;28;21049;-81
2023/05/09 12:20:40;;;;;;;21.73;20.93;;;19.80;1.00;;;;;;5081631;28;20451;-81
2023/05/09 12:23:10;;;;;;;21.63;20.73;;;19.70;1.00;;;;;;5081753;28;20465;-80
2023/05/09 12:25:38;;;;;;;20.63;19.83;;;19.70;1.00;;;;;;5081131;28;20455;-80
2023/05/09 12:28:08;;;;;;;21.43;20.63;;;19.70;1.00;;;;;;5084533;28;20521;-80
2023/05/09 12:30:36;;;;;;;21.17;20.33;;;19.60;1.00;;;;;;5082893;28;20496;-80
2023/05/09 12:33:05;;;;;;;19.43;18.67;;;19.70;1.00;;;;;;5081379;28;20478;-79
2023/05/09 12:35:34;;;;;;;19.40;18.70;;;19.70;1.00;;;;;;5079120;28;20950;-79
2023/05/09 12:38:02;;;;;;;20.70;19.70;;;19.60;1.00;;;;;;5081882;28;20478;-80
2023/05/09 12:40:30;;;;;;;20.63;19.83;;;19.60;1.00;;;;;;5082256;28;20456;-80
2023/05/09 12:43:01;;;;;;;19.87;19.10;;;19.70;1.00;;;;;;5081645;28;20496;-80
2023/05/09 12:45:32;;;;;;;21.00;20.00;;;19.70;1.00;;;;;;5079505;28;21002;-80
2023/05/09 12:48:01;;;;;;;20.17;19.37;;;19.70;1.00;;;;;;5076183;28;20514;-80